createdAt,value
2016-07-11T09:51:08.012Z,950.81
2016-07-11T10:04:33.690Z,950.81
2016-07-11T10:05:06.219Z,950.78
2016-07-11T10:06:06.570Z,950.79
2016-07-11T10:07:06.937Z,950.78
2016-07-11T10:08:06.333Z,950.70
2016-07-11T10:09:06.722Z,950.73
2016-07-11T10:10:07.130Z,950.72
2016-07-11T10:11:06.512Z,950.72
2016-07-11T10:12:06.895Z,950.68
2016-07-11T10:13:06.287Z,950.69
2016-07-11T10:14:06.757Z,950.73
2016-07-11T10:15:07.321Z,950.71
2016-07-11T10:16:06.780Z,950.73
2016-07-11T10:17:07.135Z,950.67
2016-07-11T10:18:06.853Z,950.62
2016-07-11T10:19:06.269Z,950.66
2016-07-11T10:20:06.607Z,950.63
2016-07-11T10:21:06.937Z,950.60
2016-07-11T10:22:06.418Z,950.58
2016-07-11T10:23:06.801Z,950.64
2016-07-11T10:24:06.238Z,950.56
2016-07-11T10:25:06.610Z,950.65
2016-07-11T10:26:06.979Z,950.59
2016-07-11T10:27:06.396Z,950.59
2016-07-11T10:28:06.733Z,950.59
2016-07-11T10:29:07.157Z,950.69
2016-07-11T10:30:06.519Z,950.62
2016-07-11T10:31:06.915Z,950.63
2016-07-11T10:32:06.287Z,950.59
2016-07-11T10:33:06.762Z,950.62
2016-07-11T10:34:06.315Z,950.60
2016-07-11T10:35:07.134Z,950.58
2016-07-11T10:36:06.787Z,950.54
2016-07-11T10:37:06.184Z,950.61
2016-07-11T10:38:06.531Z,950.57
2016-07-11T10:39:06.959Z,950.57
2016-07-11T10:40:06.507Z,950.61
2016-07-11T10:41:06.976Z,950.57
2016-07-11T10:42:06.387Z,950.57
2016-07-11T10:43:06.816Z,950.60
2016-07-11T10:44:06.416Z,950.57
2016-07-11T10:45:06.935Z,950.57
2016-07-11T10:46:06.565Z,950.55
2016-07-11T10:47:07.342Z,950.53
2016-07-11T10:48:06.886Z,950.55
2016-07-11T10:49:06.312Z,950.52
2016-07-11T10:50:07.187Z,950.55
2016-07-11T10:51:06.586Z,950.57
2016-07-11T10:52:06.982Z,950.56
2016-07-11T10:53:06.381Z,950.50
2016-07-11T10:54:07.110Z,950.54
2016-07-11T10:55:07.090Z,950.51
2016-07-11T10:56:07.427Z,950.52
2016-07-11T10:57:06.983Z,950.51
2016-07-11T10:58:06.572Z,950.50
2016-07-11T10:59:07.084Z,950.53
2016-07-11T11:00:06.432Z,950.48
2016-07-11T11:01:06.902Z,950.48
2016-07-11T11:02:06.315Z,950.47
2016-07-11T11:03:06.692Z,950.54
2016-07-11T11:04:07.074Z,950.48
2016-07-11T11:05:06.472Z,950.39
2016-07-11T11:06:06.871Z,950.36
2016-07-11T11:07:06.285Z,950.38
2016-07-11T11:08:06.712Z,950.38
2016-07-11T11:09:07.094Z,950.36
2016-07-11T11:10:06.601Z,950.36
2016-07-11T11:11:07.064Z,950.33
2016-07-11T11:12:06.568Z,950.34
2016-07-11T11:13:06.924Z,950.32
2016-07-11T11:14:06.327Z,950.32
2016-07-11T11:15:06.706Z,950.32
2016-07-11T11:16:07.073Z,950.31
2016-07-11T11:17:06.438Z,950.31
2016-07-11T11:18:06.844Z,950.32
2016-07-11T11:19:06.202Z,950.31
2016-07-11T11:20:06.545Z,950.28
2016-07-11T11:21:06.880Z,950.35
2016-07-11T11:22:06.261Z,950.33
2016-07-11T11:23:06.694Z,950.32
2016-07-11T11:24:07.086Z,950.31
2016-07-11T11:25:06.685Z,950.35
2016-07-11T11:26:07.036Z,950.34
2016-07-11T11:27:06.430Z,950.31
2016-07-11T11:28:06.839Z,950.39
2016-07-11T11:29:06.220Z,950.33
2016-07-11T11:30:06.541Z,950.32
2016-07-11T11:31:06.857Z,950.34
2016-07-11T11:32:06.214Z,950.33
2016-07-11T11:33:06.612Z,950.32
2016-07-11T11:34:06.988Z,950.34
2016-07-11T11:35:06.335Z,950.29
2016-07-11T11:36:06.701Z,950.34
2016-07-11T11:37:07.087Z,950.33
2016-07-11T11:38:06.481Z,950.33
2016-07-11T11:39:06.923Z,950.34
2016-07-11T11:40:06.328Z,950.40
2016-07-11T11:41:06.714Z,950.37
2016-07-11T11:42:06.261Z,950.41
2016-07-11T11:43:06.704Z,950.41
2016-07-11T11:44:07.382Z,950.41
2016-07-11T11:45:06.780Z,950.34
2016-07-11T11:46:06.245Z,950.32
2016-07-11T11:47:06.639Z,950.37
2016-07-11T11:48:07.001Z,950.37
2016-07-11T11:49:06.346Z,950.32
2016-07-11T11:50:06.705Z,950.32
2016-07-11T11:51:07.092Z,950.32
2016-07-11T11:52:06.519Z,950.26
2016-07-11T11:53:06.852Z,950.27
2016-07-11T11:54:06.215Z,950.28
2016-07-11T11:55:06.603Z,950.29
2016-07-11T11:56:07.022Z,950.31
2016-07-11T11:57:06.403Z,950.28
2016-07-11T11:58:06.797Z,950.26
2016-07-11T11:59:06.193Z,950.27
2016-07-11T12:00:06.516Z,950.24
2016-07-11T12:01:06.915Z,950.23
2016-07-11T12:02:06.294Z,950.26
2016-07-11T12:03:06.610Z,950.24
2016-07-11T12:04:06.920Z,950.20
2016-07-11T12:05:06.303Z,950.17
2016-07-11T12:06:06.730Z,950.19
2016-07-11T12:07:07.057Z,950.14
2016-07-11T12:08:06.421Z,950.16
2016-07-11T12:09:06.747Z,950.12
2016-07-11T12:10:06.218Z,950.15
2016-07-11T12:11:06.549Z,950.12
2016-07-11T12:12:06.947Z,950.11
2016-07-11T12:13:06.354Z,950.08
2016-07-11T12:14:06.693Z,950.03
2016-07-11T12:15:07.126Z,950.05
2016-07-11T12:16:06.473Z,950.06
2016-07-11T12:17:06.847Z,950.03
2016-07-11T12:18:06.232Z,950.01
2016-07-11T12:19:06.585Z,950.01
2016-07-11T12:20:07.088Z,949.99
2016-07-11T12:21:06.944Z,949.95
2016-07-11T12:22:06.625Z,950.01
2016-07-11T12:23:06.954Z,949.91
2016-07-11T12:24:06.336Z,949.91
2016-07-11T12:25:06.676Z,949.97
2016-07-11T12:26:07.205Z,949.87
2016-07-11T12:27:06.614Z,949.93
2016-07-11T12:28:06.941Z,949.92
2016-07-11T12:29:06.332Z,949.89
2016-07-11T12:30:06.769Z,949.88
2016-07-11T12:31:07.414Z,949.88
2016-07-11T12:32:06.816Z,949.84
2016-07-11T12:33:06.425Z,949.81
2016-07-11T12:34:06.903Z,949.75
2016-07-11T12:35:06.528Z,949.77
2016-07-11T12:36:06.903Z,949.74
2016-07-11T12:37:06.318Z,949.72
2016-07-11T12:38:06.716Z,949.73
2016-07-11T12:39:07.045Z,949.72
2016-07-11T12:40:06.422Z,949.76
2016-07-11T12:41:07.006Z,949.76
2016-07-11T12:42:06.408Z,949.74
2016-07-11T12:43:06.796Z,949.73
2016-07-11T12:44:06.203Z,949.76
2016-07-11T12:45:06.588Z,949.71
2016-07-11T12:46:06.986Z,949.66
2016-07-11T12:47:06.392Z,949.68
2016-07-11T12:48:07.040Z,949.70
2016-07-11T12:49:06.427Z,949.74
2016-07-11T12:50:06.767Z,949.69
2016-07-11T12:51:07.154Z,949.71
2016-07-11T12:52:06.844Z,949.70
2016-07-11T12:53:06.533Z,949.66
2016-07-11T12:54:07.024Z,949.64
2016-07-11T12:55:06.425Z,949.67
2016-07-11T12:56:06.872Z,949.67
2016-07-11T12:57:06.307Z,949.68
2016-07-11T12:58:06.821Z,949.60
2016-07-11T12:59:06.199Z,949.56
2016-07-11T13:00:06.535Z,949.50
2016-07-11T13:01:06.918Z,949.47
2016-07-11T13:02:06.386Z,949.49
2016-07-11T13:03:06.754Z,949.44
2016-07-11T13:04:07.065Z,949.42
2016-07-11T13:05:06.422Z,949.44
2016-07-11T13:06:06.802Z,949.42
2016-07-11T13:07:06.205Z,949.41
2016-07-11T13:08:06.542Z,949.36
2016-07-11T13:09:06.889Z,949.37
2016-07-11T13:10:06.305Z,949.28
2016-07-11T13:11:06.803Z,949.28
2016-07-11T13:12:06.207Z,949.26
2016-07-11T13:13:06.544Z,949.29
2016-07-11T13:14:06.880Z,949.21
2016-07-11T13:15:06.296Z,949.22
2016-07-11T13:16:06.632Z,949.20
2016-07-11T13:17:06.988Z,949.09
2016-07-11T13:18:06.390Z,949.13
2016-07-11T13:19:06.750Z,949.11
2016-07-11T13:20:07.093Z,949.11
2016-07-11T13:21:06.494Z,949.08
2016-07-11T13:22:06.886Z,949.07
2016-07-11T13:23:06.279Z,949.12
2016-07-11T13:24:06.595Z,949.16
2016-07-11T13:25:07.355Z,949.17
2016-07-11T13:26:08.794Z,949.14
2016-07-11T13:27:06.317Z,949.13
2016-07-11T13:28:06.718Z,949.13
2016-07-11T13:29:07.058Z,949.12
2016-07-11T13:30:06.529Z,949.10
2016-07-11T13:31:06.864Z,949.10
2016-07-11T13:32:06.293Z,949.08
2016-07-11T13:33:06.621Z,949.04
2016-07-11T13:34:06.944Z,949.01
2016-07-11T13:35:06.624Z,948.98
2016-07-11T13:36:06.981Z,948.93
2016-07-11T13:37:06.622Z,948.94
2016-07-11T13:38:06.965Z,948.95
2016-07-11T13:39:06.331Z,948.91
2016-07-11T13:40:06.715Z,948.91
2016-07-11T13:41:07.114Z,948.87
2016-07-11T13:42:06.505Z,948.87
2016-07-11T13:43:06.305Z,948.83
2016-07-11T13:44:06.639Z,948.80
2016-07-11T13:45:06.979Z,948.82
2016-07-11T13:46:06.521Z,948.81
2016-07-11T13:47:06.870Z,948.83
2016-07-11T13:48:06.280Z,948.84
2016-07-11T13:49:06.633Z,948.84
2016-07-11T13:50:06.969Z,948.83
2016-07-11T13:51:06.320Z,948.86
2016-07-11T13:52:06.678Z,948.92
2016-07-11T13:53:06.993Z,948.97
2016-07-11T13:54:06.321Z,948.99
2016-07-11T13:55:06.664Z,949.03
2016-07-11T13:56:07.016Z,949.07
2016-07-11T13:57:06.398Z,949.07
2016-07-11T13:58:06.719Z,949.06
2016-07-11T13:59:07.040Z,949.11
2016-07-11T14:00:06.415Z,949.06
2016-07-11T14:01:06.753Z,949.05
2016-07-11T14:02:07.077Z,949.05
2016-07-11T14:03:06.457Z,949.04
2016-07-11T14:04:06.778Z,949.10
2016-07-11T14:05:06.192Z,949.13
2016-07-11T14:06:06.536Z,949.11
2016-07-11T14:07:06.880Z,949.16
2016-07-11T14:08:06.230Z,949.09
2016-07-11T14:09:06.655Z,949.19
2016-07-11T14:10:07.007Z,949.20
2016-07-11T14:11:06.547Z,949.16
2016-07-11T14:12:06.948Z,949.18
2016-07-11T14:13:06.380Z,949.21
2016-07-11T14:14:06.702Z,949.22
2016-07-11T14:15:07.052Z,949.23
2016-07-11T14:16:06.415Z,949.15
2016-07-11T14:17:06.734Z,949.22
2016-07-11T14:18:07.066Z,949.20
2016-07-11T14:19:06.421Z,949.23
2016-07-11T14:20:06.851Z,949.24
2016-07-11T14:21:06.245Z,949.20
2016-07-11T14:22:06.608Z,949.19
2016-07-11T14:23:06.948Z,949.21
2016-07-11T14:24:06.272Z,949.17
2016-07-11T14:25:06.604Z,949.18
2016-07-11T14:26:07.044Z,949.14
2016-07-11T14:27:06.694Z,949.11
2016-07-11T14:28:07.148Z,949.10
2016-07-11T14:29:06.668Z,949.08
2016-07-11T14:30:07.048Z,949.13
2016-07-11T14:31:06.606Z,949.06
2016-07-11T14:32:07.021Z,949.06
2016-07-11T14:33:06.524Z,949.09
2016-07-11T14:34:06.873Z,949.06
2016-07-11T14:35:06.289Z,949.05
2016-07-11T14:36:06.985Z,949.04
2016-07-11T14:37:06.333Z,949.02
2016-07-11T14:38:06.728Z,949.01
2016-07-11T14:39:07.042Z,949.06
2016-07-11T14:40:06.451Z,949.02
2016-07-11T14:41:06.767Z,949.06
2016-07-11T14:42:07.085Z,949.02
2016-07-11T14:43:06.473Z,949.00
2016-07-11T14:45:06.915Z,948.96
2016-07-11T14:46:06.304Z,948.96
2016-07-11T14:47:06.659Z,948.94
2016-07-11T14:48:06.979Z,948.94
2016-07-11T14:49:06.340Z,948.88
2016-07-11T14:50:06.657Z,948.90
2016-07-11T14:51:07.100Z,948.86
2016-07-11T14:52:06.453Z,948.86
2016-07-11T14:53:06.776Z,948.85
2016-07-11T14:54:07.138Z,948.85
2016-07-11T14:55:06.482Z,948.85
2016-07-11T14:56:06.798Z,948.82
2016-07-11T14:57:06.192Z,948.77
2016-07-11T14:58:06.733Z,948.76
2016-07-11T14:59:07.083Z,948.73
2016-07-11T15:00:06.778Z,948.70
2016-07-11T15:01:06.312Z,948.72
2016-07-11T15:02:06.291Z,948.68
2016-07-11T15:03:06.793Z,948.67
2016-07-11T15:04:06.211Z,948.71
2016-07-11T15:05:06.622Z,948.75
2016-07-11T15:06:06.950Z,948.76
2016-07-11T15:07:06.387Z,948.74
2016-07-11T15:08:06.842Z,948.78
2016-07-11T15:09:06.298Z,948.78
2016-07-11T15:10:06.729Z,948.76
2016-07-11T15:11:07.129Z,948.76
2016-07-11T15:12:06.669Z,948.75
2016-07-11T15:13:06.982Z,948.73
2016-07-11T15:14:06.337Z,948.74
2016-07-11T15:15:06.709Z,948.73
2016-07-11T15:16:07.119Z,948.73
2016-07-11T15:17:06.541Z,948.70
2016-07-11T15:18:06.926Z,948.71
2016-07-11T15:19:06.436Z,948.66
2016-07-11T15:20:06.924Z,948.66
2016-07-11T15:21:06.517Z,948.61
2016-07-11T15:22:06.854Z,948.65
2016-07-11T15:23:06.221Z,948.57
2016-07-11T15:24:06.653Z,948.58
2016-07-11T15:25:06.987Z,948.57
2016-07-11T15:26:06.349Z,948.54
2016-07-11T15:27:06.667Z,948.60
2016-07-11T15:28:07.029Z,948.58
2016-07-11T15:29:06.413Z,948.54
2016-07-11T15:30:06.832Z,948.57
2016-07-11T15:31:06.262Z,948.56
2016-07-11T15:32:06.628Z,948.55
2016-07-11T15:33:06.953Z,948.55
2016-07-11T15:34:06.404Z,948.47
2016-07-11T15:35:06.956Z,948.55
2016-07-11T15:36:06.520Z,948.50
2016-07-11T15:37:06.875Z,948.45
2016-07-11T15:38:06.225Z,948.55
2016-07-11T15:39:06.896Z,948.52
2016-07-11T15:40:06.836Z,948.60
2016-07-11T15:41:06.308Z,948.60
2016-07-11T15:42:06.714Z,948.62
2016-07-11T15:43:07.048Z,948.63
2016-07-11T15:44:06.631Z,948.62
2016-07-11T15:45:07.043Z,948.60
2016-07-11T15:46:06.421Z,948.60
2016-07-11T15:47:06.761Z,948.56
2016-07-11T15:48:07.081Z,948.57
2016-07-11T15:49:06.513Z,948.58
2016-07-11T15:50:07.118Z,948.59
2016-07-11T15:51:06.635Z,948.58
2016-07-11T15:52:07.000Z,948.56
2016-07-11T15:53:06.612Z,948.59
2016-07-11T15:54:07.441Z,948.58
2016-07-11T15:55:06.960Z,948.57
2016-07-11T15:56:06.604Z,948.59
2016-07-11T15:57:07.062Z,948.57
2016-07-11T15:58:06.546Z,948.56
2016-07-11T15:59:06.906Z,948.58
2016-07-11T16:00:06.290Z,948.56
2016-07-11T16:01:06.771Z,948.53
2016-07-11T16:02:07.114Z,948.50
2016-07-11T16:03:06.504Z,948.49
2016-07-11T16:04:07.078Z,948.48
2016-07-11T16:05:06.526Z,948.41
2016-07-11T16:06:06.924Z,948.39
2016-07-11T16:07:06.292Z,948.40
2016-07-11T16:08:06.678Z,948.42
2016-07-11T16:09:06.999Z,948.35
2016-07-11T16:10:06.354Z,948.40
2016-07-11T16:11:06.837Z,948.43
2016-07-11T16:12:06.309Z,948.39
2016-07-11T16:13:06.697Z,948.39
2016-07-11T16:14:07.090Z,948.34
2016-07-11T16:15:06.524Z,948.36
2016-07-11T16:16:06.899Z,948.32
2016-07-11T16:17:06.320Z,948.33
